Gunnar Thorson — OUDU — position and weather

sailwx.info

Track history (hours):
 
Tides and Currents Weather Stations Pressure Air Temp Water Temp Dewpoint Dewpoint Depression Visibility Wind Speed Wind Dir Waves Ship Positions

Oceanographic research ship Gunnar Thorson (Denmark)

Detailed information on ship capabilities available from University of Delaware's Ocean Information Center.

Last reported at 2015-Mar-04 03:33 UTC. Time now 2015-Mar-04 04:26 UTC.
Position N 55°57' E 012°38'.

Length 48 m; draft 4.2 m.

Type: Military. MMSI: 219263000.

Date/timePositionNaut miles runAvg speedWind from/ knotsBaromVisibWave heightAir tempDewpointWater temp
2015-Mar-04 03:33N 55°57' E 012°38'9 8.8
2015-Mar-04 02:33N 56°06' E 012°33'1010.4
2015-Mar-04 01:33N 56°12' E 012°18'10 9.9
2015-Mar-04 00:33N 56°18' E 012°04'1210.9
2015-Mar-03 23:29N 56°26' E 011°48'1010.4
2015-Mar-03 22:32N 56°33' E 011°36'11 8.4
2015-Mar-03 21:12N 56°40' E 011°20'2810.3
2015-Mar-03 18:29N 57°03' E 010°49'1010.4
2015-Mar-03 17:33N 57°12' E 010°44'1110.6
2015-Mar-03 16:31N 57°22' E 010°39'5 0.8
2015-Mar-03 10:31N 57°26' E 010°32'6 6.3
2015-Mar-03 09:30N 57°22' E 010°42'1 1.1
2015-Mar-03 08:16N 57°21' E 010°41'1 0.7
2015-Mar-03 07:12N 57°21' E 010°40'1 1.8
2015-Mar-03 06:26N 57°21' E 010°37'0 0.0
2015-Mar-02 22:20N 57°21' E 010°37'0 0.0
2015-Mar-02 16:32N 57°21' E 010°37'4 3.5
2015-Mar-02 15:30N 57°25' E 010°35'2 1.6
2015-Mar-02 14:30N 57°23' E 010°36'0 0.3
2015-Mar-02 13:28N 57°24' E 010°36'2 1.6
2015-Mar-02 12:23N 57°25' E 010°35'  
2015-Feb-28 06:26N 57°26' E 010°32'0 0.0
2015-Feb-28 03:08N 57°26' E 010°32'0 0.0
2015-Feb-28 02:32N 57°26' E 010°32'0 0.0
2015-Feb-27 21:17N 57°26' E 010°32'0 0.0
2015-Feb-27 18:17N 57°26' E 010°32'0 0.0
2015-Feb-27 16:14N 57°26' E 010°32'0 0.0
2015-Feb-27 15:05N 57°26' E 010°32'0 0.0
2015-Feb-27 14:26N 57°26' E 010°32'  
2015-Feb-22 19:22N 57°26' E 010°32'  
Track history (hours):
 
Tides and Currents Weather Stations Pressure Air Temp Water Temp Dewpoint Dewpoint Depression Visibility Wind Speed Wind Dir Waves Ship Positions

Oceanographic research ship Gunnar Thorson (Denmark)

Detailed information on ship capabilities available from University of Delaware's Ocean Information Center.

Last reported at 2015-Mar-04 03:33 UTC. Time now 2015-Mar-04 04:26 UTC.
Position N 55°57' E 012°38'.

Length 48 m; draft 4.2 m.

Type: Military. MMSI: 219263000.

Date/timePositionNaut miles runAvg speedWind from/ knotsBaromVisibWave heightAir tempDewpointWater temp
2015-Mar-04 03:33N 55°57' E 012°38'9 8.8
2015-Mar-04 02:33N 56°06' E 012°33'1010.4
2015-Mar-04 01:33N 56°12' E 012°18'10 9.9
2015-Mar-04 00:33N 56°18' E 012°04'1210.9
2015-Mar-03 23:29N 56°26' E 011°48'1010.4
2015-Mar-03 22:32N 56°33' E 011°36'11 8.4
2015-Mar-03 21:12N 56°40' E 011°20'2810.3
2015-Mar-03 18:29N 57°03' E 010°49'1010.4
2015-Mar-03 17:33N 57°12' E 010°44'1110.6
2015-Mar-03 16:31N 57°22' E 010°39'5 0.8
2015-Mar-03 10:31N 57°26' E 010°32'6 6.3
2015-Mar-03 09:30N 57°22' E 010°42'1 1.1
2015-Mar-03 08:16N 57°21' E 010°41'1 0.7
2015-Mar-03 07:12N 57°21' E 010°40'1 1.8
2015-Mar-03 06:26N 57°21' E 010°37'0 0.0
2015-Mar-02 22:20N 57°21' E 010°37'0 0.0
2015-Mar-02 16:32N 57°21' E 010°37'4 3.5
2015-Mar-02 15:30N 57°25' E 010°35'2 1.6
2015-Mar-02 14:30N 57°23' E 010°36'0 0.3
2015-Mar-02 13:28N 57°24' E 010°36'2 1.6
2015-Mar-02 12:23N 57°25' E 010°35'  
2015-Feb-28 06:26N 57°26' E 010°32'0 0.0
2015-Feb-28 03:08N 57°26' E 010°32'0 0.0
2015-Feb-28 02:32N 57°26' E 010°32'0 0.0
2015-Feb-27 21:17N 57°26' E 010°32'0 0.0
2015-Feb-27 18:17N 57°26' E 010°32'0 0.0
2015-Feb-27 16:14N 57°26' E 010°32'0 0.0
2015-Feb-27 15:05N 57°26' E 010°32'0 0.0
2015-Feb-27 14:26N 57°26' E 010°32'  
2015-Feb-22 19:22N 57°26' E 010°32'  

Dump ship's entire track history